Time;durP1;ratioP1;P1;durP2;ratioP2;P2;SDS_P1;SDS_P2;PMS_P1;PMS_P2;Temp;Humidity;BMP_temperature;BMP_pressure;BME280_temperature;BME280_humidity;BME280_pressure;Samples;Min_cycle;Max_cycle;Signal;HPM_P1;HPM_P2
2022/11/25 00:01:08;;;;;;;12.55;3.17;;;;;;;13.06;71.04;100891.63;5054309;28;20032;-41
2022/11/25 00:03:34;;;;;;;13.10;3.38;;;;;;;12.98;71.33;100901.19;5053216;28;20385;-42
2022/11/25 00:06:09;;;;;;;15.23;3.22;;;;;;;13.16;70.48;100898.69;5054236;28;20056;-40
2022/11/25 00:08:35;;;;;;;17.20;3.45;;;;;;;13.22;70.59;100906.56;5054472;28;20389;-41
2022/11/25 00:11:01;;;;;;;14.23;3.38;;;;;;;13.14;70.99;100892.56;5055215;28;20073;-40
2022/11/25 00:13:26;;;;;;;12.40;3.20;;;;;;;13.28;70.61;100900.47;5055983;28;20096;-41
2022/11/25 00:15:51;;;;;;;17.70;3.60;;;;;;;13.14;71.04;100897.78;5055165;28;20106;-42
2022/11/25 00:18:17;;;;;;;16.55;3.55;;;;;;;13.21;71.16;100896.06;5055995;28;20747;-41
2022/11/25 00:20:42;;;;;;;13.60;3.58;;;;;;;13.20;71.38;100884.72;5055798;28;20029;-40
2022/11/25 00:23:07;;;;;;;13.80;3.38;;;;;;;13.15;71.50;100888.19;5055926;28;20437;-40
2022/11/25 00:25:33;;;;;;;9.90;3.17;;;;;;;13.22;71.65;100888.22;5055929;28;20469;-41
2022/11/25 00:27:58;;;;;;;12.45;3.17;;;;;;;13.25;71.34;100889.97;5053618;28;20112;-45
2022/11/25 00:30:23;;;;;;;13.38;3.20;;;;;;;13.32;71.42;100878.63;5053568;28;20068;-41
2022/11/25 00:32:49;;;;;;;14.73;3.40;;;;;;;13.13;71.77;100889.94;5055672;28;20331;-44
2022/11/25 00:35:14;;;;;;;11.65;3.38;;;;;;;13.16;72.15;100893.44;5037527;28;20111;-41
2022/11/25 00:37:39;;;;;;;13.23;3.40;;;;;;;13.17;72.28;100886.47;5053405;28;20047;-43
2022/11/25 00:40:05;;;;;;;11.52;3.33;;;;;;;13.25;72.18;100893.47;5052817;28;20021;-42
2022/11/25 00:45:15;;;;;;;13.18;3.63;;;;;;;13.26;71.71;100894.34;5051445;28;20600;-41
2022/11/25 00:47:40;;;;;;;11.50;3.65;;;;;;;13.22;72.00;100903.94;5050435;28;20040;-43
2022/11/25 00:50:06;;;;;;;12.13;3.85;;;;;;;13.30;71.64;100899.56;5050422;28;20021;-42
2022/11/25 00:52:35;;;;;;;14.00;3.90;;;;;;;13.30;72.14;100906.56;5049891;28;20032;-41
2022/11/25 00:55:01;;;;;;;14.30;3.75;;;;;;;13.31;71.76;100910.94;5050683;28;20635;-42
2022/11/25 00:57:26;;;;;;;11.68;3.85;;;;;;;13.31;71.71;100910.94;5050151;28;20104;-41
2022/11/25 00:59:51;;;;;;;13.90;4.00;;;;;;;13.26;72.20;100912.66;5050347;28;20504;-41
2022/11/25 01:02:18;;;;;;;13.65;4.60;;;;;;;13.31;71.72;100917.03;5050004;28;20025;-41
2022/11/25 01:04:44;;;;;;;11.32;4.35;;;;;;;13.36;71.59;100906.56;5050037;28;20025;-40
2022/11/25 01:07:10;;;;;;;11.10;4.05;;;;;;;13.37;71.49;100906.59;5049995;28;20049;-40
2022/11/25 01:09:36;;;;;;;12.15;4.43;;;;;;;13.27;71.73;100917.91;5049784;28;20064;-43
2022/11/25 01:12:01;;;;;;;14.15;4.85;;;;;;;13.28;71.75;100924.03;5049903;28;20114;-41
2022/11/25 01:14:27;;;;;;;11.65;4.40;;;;;;;13.28;71.78;100922.28;5051380;28;20068;-43
2022/11/25 01:16:52;;;;;;;15.25;4.72;;;;;;;13.19;72.25;100914.38;5054338;28;20013;-41
2022/11/25 01:19:18;;;;;;;14.40;5.00;;;;;;;13.27;71.92;100917.91;5054038;28;20397;-42
2022/11/25 01:21:44;;;;;;;14.48;4.60;;;;;;;13.26;71.95;100915.28;5053922;28;20028;-44
2022/11/25 01:24:12;;;;;;;16.63;4.72;;;;;;;13.23;71.85;100917.91;5036007;28;20558;-40
2022/11/25 01:26:37;;;;;;;15.23;4.88;;;;;;;13.18;72.38;100917.88;5054249;28;20052;-44
2022/11/25 01:29:05;;;;;;;11.52;4.65;;;;;;;13.35;71.68;100907.47;5053899;28;20061;-42
2022/11/25 01:31:33;;;;;;;14.95;5.05;;;;;;;13.31;71.84;100913.53;5053312;28;20051;-42
2022/11/25 01:34:05;;;;;;;15.38;5.00;;;;;;;13.35;71.76;100904.84;5053815;28;20033;-42
2022/11/25 01:36:30;;;;;;;15.27;4.97;;;;;;;13.39;71.44;100893.50;5053775;28;20024;-42
2022/11/25 01:38:58;;;;;;;17.17;4.82;;;;;;;13.34;71.46;100895.25;5053467;28;20025;-42
2022/11/25 01:41:26;;;;;;;14.20;4.82;;;;;;;13.27;72.03;100893.47;5054074;28;20037;-42
2022/11/25 01:44:05;;;;;;;12.23;4.70;;;;;;;13.21;72.44;100901.31;5055349;28;20025;-42
2022/11/25 01:46:56;;;;;;;15.80;4.78;;;;;;;13.17;72.48;100917.88;5056326;28;20106;-45
2022/11/25 01:49:43;;;;;;;12.52;4.40;;;;;;;12.93;73.56;100919.47;5037154;28;20025;-42
2022/11/25 01:52:31;;;;;;;14.45;4.20;;;;;;;13.24;72.57;100910.03;5055164;28;20029;-42
2022/11/25 01:55:04;;;;;;;10.65;4.20;;;;;;;13.18;72.92;100904.78;5055740;28;20060;-45
2022/11/25 01:57:37;;;;;;;12.30;4.00;;;;;;;13.37;72.13;100895.22;5056087;28;20100;-42
2022/11/25 02:00:04;;;;;;;9.32;3.60;;;;;;;13.07;73.35;100903.84;5056746;28;20021;-42
2022/11/25 02:02:30;;;;;;;11.73;3.53;;;;;;;13.18;73.04;100898.66;5056476;28;20477;-42
2022/11/25 02:04:57;;;;;;;12.27;3.58;;;;;;;13.02;73.51;100910.81;5056023;28;20078;-47
2022/11/25 02:07:35;;;;;;;15.00;3.30;;;;;;;13.19;72.82;100917.00;5055253;28;20025;-42
2022/11/25 02:10:04;;;;;;;11.80;3.45;;;;;;;13.25;72.45;100917.03;5054072;28;20103;-43
2022/11/25 02:12:30;;;;;;;8.25;3.05;;;;;;;13.27;72.01;100917.03;5052639;28;20122;-42
2022/11/25 02:14:57;;;;;;;10.75;3.15;;;;;;;13.14;72.32;100916.13;5052990;28;20024;-41
2022/11/25 02:17:23;;;;;;;12.00;2.80;;;;;;;13.28;71.91;100908.31;5052941;28;20393;-42
2022/11/25 02:20:13;;;;;;;11.65;3.20;;;;;;;13.21;72.31;100915.28;5034898;28;20035;-42
2022/11/25 02:23:16;;;;;;;10.77;2.60;;;;;;;13.25;72.14;100918.75;5052886;28;20071;-39
2022/11/25 02:25:42;;;;;;;10.40;2.67;;;;;;;13.23;72.13;100910.94;5051605;28;20060;-43
2022/11/25 02:28:12;;;;;;;9.82;2.53;;;;;;;13.19;72.07;100913.50;5052632;28;20028;-43
2022/11/25 02:30:37;;;;;;;9.77;2.20;;;;;;;13.16;72.18;100914.41;5053665;28;20025;-41
2022/11/25 02:33:02;;;;;;;9.60;2.42;;;;;;;12.93;72.72;100913.38;5053039;28;20029;-43
2022/11/25 02:35:39;;;;;;;10.68;3.00;;;;;;;12.99;72.82;100911.66;5053474;28;20036;-43
2022/11/25 02:38:15;;;;;;;10.95;2.88;;;;;;;13.11;72.17;100917.84;5052497;28;20064;-41
2022/11/25 02:40:47;;;;;;;10.40;2.45;;;;;;;13.15;71.79;100915.25;5054368;28;20055;-43
2022/11/25 02:43:13;;;;;;;11.45;2.33;;;;;;;13.14;71.73;100923.09;5054425;28;20059;-41
2022/11/25 02:46:02;;;;;;;8.82;2.40;;;;;;;13.18;71.33;100919.59;5054125;28;20064;-41
2022/11/25 02:48:32;;;;;;;10.35;2.67;;;;;;;12.93;72.35;100936.91;5053227;28;20525;-41
2022/11/25 02:50:57;;;;;;;9.90;2.70;;;;;;;13.05;72.14;100933.50;5052032;28;20063;-42
2022/11/25 02:53:23;;;;;;;10.75;2.58;;;;;;;12.97;72.13;100933.47;5052213;28;20445;-43
2022/11/25 02:55:48;;;;;;;7.03;2.30;;;;;;;12.90;72.55;100934.31;5052553;28;20104;-43
2022/11/25 03:00:53;;;;;;;11.20;2.05;;;;;;;13.03;72.15;100941.34;5029849;28;20049;-43
2022/11/25 03:03:19;;;;;;;10.85;2.47;;;;;;;12.94;72.14;100933.44;5032149;28;20022;-43
2022/11/25 03:05:44;;;;;;;6.47;1.95;;;;;;;12.90;71.90;100942.16;5031996;28;20490;-44
2022/11/25 03:08:10;;;;;;;6.93;1.92;;;;;;;12.94;72.04;100946.53;5032313;28;20025;-45
2022/11/25 03:10:37;;;;;;;8.30;2.08;;;;;;;12.99;71.62;100947.44;5032622;28;20028;-45
2022/11/25 03:13:03;;;;;;;8.82;2.00;;;;;;;12.98;71.49;100949.19;5033100;28;20033;-43
2022/11/25 03:15:29;;;;;;;9.88;1.92;;;;;;;12.94;71.54;100944.78;5033602;28;20386;-42
2022/11/25 03:17:54;;;;;;;5.75;1.85;;;;;;;12.92;71.71;100948.28;5033086;28;20028;-42
2022/11/25 03:20:20;;;;;;;11.27;2.40;;;;;;;12.87;71.77;100944.72;5032190;28;20175;-41
2022/11/25 03:22:45;;;;;;;9.82;2.15;;;;;;;12.95;71.44;100950.91;5033461;28;20445;-43
2022/11/25 03:25:11;;;;;;;8.05;1.98;;;;;;;12.89;71.74;100956.97;5033605;28;20053;-41
2022/11/25 03:27:38;;;;;;;12.73;2.20;;;;;;;12.85;71.63;100960.44;5032749;28;20390;-45
2022/11/25 03:30:06;;;;;;;7.88;2.13;;;;;;;12.81;71.51;100963.91;5032211;28;20103;-43
2022/11/25 03:32:32;;;;;;;7.55;1.95;;;;;;;12.69;71.92;100968.19;5031282;28;20033;-44
2022/11/25 03:34:57;;;;;;;7.03;2.10;;;;;;;12.63;72.06;100978.59;5031603;28;20029;-44
2022/11/25 03:37:23;;;;;;;5.68;2.00;;;;;;;12.62;71.62;100969.91;5031252;28;20426;-43
2022/11/25 03:39:48;;;;;;;6.85;2.05;;;;;;;12.66;71.68;100984.75;5031308;28;20450;-45
2022/11/25 03:42:13;;;;;;;9.68;2.00;;;;;;;12.74;71.10;100993.53;5031236;28;20022;-45
2022/11/25 03:44:38;;;;;;;8.60;2.10;;;;;;;12.49;71.80;100996.84;5031427;28;20032;-44
2022/11/25 03:47:04;;;;;;;6.38;2.20;;;;;;;12.47;71.98;100994.19;5032211;28;20112;-43
2022/11/25 03:49:29;;;;;;;5.47;2.20;;;;;;;12.43;71.77;101000.28;5036696;28;20035;-42
2022/11/25 03:51:54;;;;;;;7.40;2.20;;;;;;;12.38;71.80;100993.28;5033943;28;20025;-42
2022/11/25 03:54:20;;;;;;;6.88;2.50;;;;;;;12.35;71.85;100986.25;5031398;28;20029;-47
2022/11/25 03:56:45;;;;;;;10.20;2.30;;;;;;;12.39;71.17;100989.75;5031499;28;20055;-41
2022/11/25 03:59:10;;;;;;;7.25;2.50;;;;;;;12.26;72.04;100996.63;5031706;28;20029;-42
2022/11/25 04:01:36;;;;;;;10.10;2.50;;;;;;;12.24;71.62;100994.88;5030464;28;20090;-43
2022/11/25 04:04:02;;;;;;;10.70;2.80;;;;;;;12.05;72.59;100997.34;5030940;28;20025;-41
2022/11/25 04:06:27;;;;;;;10.68;2.60;;;;;;;12.16;72.10;100992.19;5031143;28;20077;-43
2022/11/25 04:08:52;;;;;;;6.72;2.60;;;;;;;12.07;72.20;100986.91;5031041;28;20114;-42
2022/11/25 04:11:18;;;;;;;7.10;2.45;;;;;;;12.04;72.32;101006.03;5030686;28;20303;-42
2022/11/25 04:13:43;;;;;;;7.00;2.38;;;;;;;12.10;72.12;101006.09;5030902;28;20124;-43
2022/11/25 04:16:34;;;;;;;8.80;2.30;;;;;;;12.03;72.23;100995.56;5030844;28;20021;-44
2022/11/25 04:19:00;;;;;;;9.63;2.35;;;;;;;12.01;72.31;100998.19;5029412;28;20107;-44
2022/11/25 04:21:25;;;;;;;7.05;2.00;;;;;;;11.89;72.21;101002.41;5030206;28;20085;-42
2022/11/25 04:23:50;;;;;;;6.88;1.90;;;;;;;11.99;72.74;101007.72;5030276;28;20025;-43
2022/11/25 04:26:16;;;;;;;7.68;1.98;;;;;;;12.03;72.16;101012.09;5030371;28;20040;-45
2022/11/25 04:28:41;;;;;;;6.22;1.90;;;;;;;12.05;72.01;101012.13;5030230;28;20055;-43
2022/11/25 04:31:07;;;;;;;6.70;1.70;;;;;;;11.84;72.47;101015.41;5029821;28;20025;-42
2022/11/25 04:33:33;;;;;;;5.20;1.80;;;;;;;11.96;72.29;101030.31;5030338;28;20122;-43
2022/11/25 04:35:58;;;;;;;6.38;1.60;;;;;;;11.84;72.20;101025.84;5030152;28;20060;-45
2022/11/25 04:38:23;;;;;;;8.77;1.60;;;;;;;11.88;72.29;101037.22;5030117;28;20033;-43
2022/11/25 04:40:49;;;;;;;4.72;1.40;;;;;;;12.01;71.41;101039.97;5029985;28;20370;-42
2022/11/25 04:43:14;;;;;;;5.35;1.48;;;;;;;11.60;73.19;101042.09;5030257;28;20512;-42
2022/11/25 04:45:39;;;;;;;4.38;1.40;;;;;;;11.74;72.93;101047.50;5030219;28;20537;-42
2022/11/25 04:48:05;;;;;;;5.40;1.40;;;;;;;11.75;72.95;101062.31;5029750;28;20091;-44
2022/11/25 04:50:30;;;;;;;3.58;1.48;;;;;;;11.70;73.21;101057.03;5029520;28;20129;-44
2022/11/25 04:52:55;;;;;;;2.65;1.42;;;;;;;11.96;72.13;101057.31;5030132;28;20036;-46
2022/11/25 04:55:21;;;;;;;3.67;1.33;;;;;;;11.85;72.59;101051.13;5030434;28;20027;-43
2022/11/25 04:57:46;;;;;;;5.10;1.60;;;;;;;12.02;71.92;101043.44;5029960;28;20470;-43
2022/11/25 05:00:12;;;;;;;4.63;1.45;;;;;;;11.97;71.71;101058.19;5029856;28;20466;-46
2022/11/25 05:02:38;;;;;;;6.00;1.40;;;;;;;11.98;71.35;101060.84;5029430;28;20120;-42
2022/11/25 05:05:04;;;;;;;3.88;1.50;;;;;;;11.86;71.53;101065.06;5028592;28;20014;-42
2022/11/25 05:07:29;;;;;;;4.80;1.50;;;;;;;11.87;71.62;101069.44;5029821;28;20025;-43
2022/11/25 05:09:55;;;;;;;4.75;1.88;;;;;;;11.82;71.76;101065.88;5029569;28;20040;-43
2022/11/25 05:12:26;;;;;;;5.63;1.55;;;;;;;11.76;72.29;101075.41;5029536;28;20035;-42
2022/11/25 05:14:52;;;;;;;4.38;1.55;;;;;;;11.87;71.32;101069.44;5029916;28;20021;-43
2022/11/25 05:17:20;;;;;;;3.88;1.67;;;;;;;11.67;71.68;101075.25;5030084;28;20016;-46
2022/11/25 05:19:46;;;;;;;4.53;1.70;;;;;;;11.80;71.52;101078.91;5029417;28;20029;-43
2022/11/25 05:22:13;;;;;;;5.22;1.73;;;;;;;11.71;72.00;101092.69;5029323;28;20029;-44
2022/11/25 05:24:38;;;;;;;4.35;1.55;;;;;;;11.90;72.00;101090.34;5029869;28;20104;-43
2022/11/25 05:27:04;;;;;;;6.90;1.70;;;;;;;11.92;72.00;101104.31;5029879;28;20116;-44
2022/11/25 05:29:30;;;;;;;3.70;1.67;;;;;;;11.98;72.26;101109.59;5029988;28;20389;-43
2022/11/25 05:31:55;;;;;;;5.18;1.63;;;;;;;12.10;71.83;101109.75;5029762;28;20048;-44
2022/11/25 05:34:20;;;;;;;6.15;2.00;;;;;;;12.05;71.83;101114.03;5033201;28;20025;-43
2022/11/25 05:36:45;;;;;;;5.65;2.20;;;;;;;11.94;72.06;101105.22;5034427;28;20367;-45
2022/11/25 05:39:11;;;;;;;5.72;1.80;;;;;;;11.81;71.57;101109.41;5030692;28;20562;-47
2022/11/25 05:41:36;;;;;;;4.43;1.90;;;;;;;11.90;71.41;101112.13;5029505;28;20112;-46
2022/11/25 05:44:01;;;;;;;5.63;2.10;;;;;;;11.84;71.17;101104.22;5029791;28;20029;-43
2022/11/25 05:46:27;;;;;;;6.22;2.10;;;;;;;11.83;70.96;101110.31;5029510;28;20025;-43
2022/11/25 05:48:55;;;;;;;6.20;2.20;;;;;;;11.87;70.52;101103.38;5029423;28;20393;-45
2022/11/25 05:51:21;;;;;;;6.07;2.30;;;;;;;11.82;70.38;101112.91;5029195;28;20033;-44
2022/11/25 05:53:46;;;;;;;4.03;2.10;;;;;;;11.76;70.54;101111.97;5029610;28;20022;-44
2022/11/25 05:56:12;;;;;;;8.20;2.60;;;;;;;11.48;70.76;101103.72;5029442;28;20035;-43
2022/11/25 05:58:37;;;;;;;8.82;2.60;;;;;;;11.62;71.20;101117.84;5029296;28;20029;-44
2022/11/25 06:01:07;;;;;;;6.75;2.80;;;;;;;11.56;71.08;101115.16;5031452;28;20026;-43
2022/11/25 06:03:33;;;;;;;9.07;2.60;;;;;;;11.51;71.21;101116.81;5032966;28;20498;-43
2022/11/25 06:05:59;;;;;;;8.60;2.78;;;;;;;11.50;71.25;101126.41;5033066;28;20083;-46
2022/11/25 06:08:26;;;;;;;4.80;2.50;;;;;;;11.49;71.29;101127.25;5033053;28;20033;-43
2022/11/25 06:10:51;;;;;;;6.60;2.50;;;;;;;11.45;71.22;101121.97;5033128;28;20026;-43
2022/11/25 06:13:18;;;;;;;5.97;2.50;;;;;;;11.45;71.00;101128.06;5033365;28;20117;-42
2022/11/25 06:15:44;;;;;;;5.78;2.63;;;;;;;11.33;71.21;101123.56;5033756;28;20028;-42
2022/11/25 06:18:10;;;;;;;7.40;2.47;;;;;;;11.42;70.83;101125.41;5035532;28;20021;-41
2022/11/25 06:20:36;;;;;;;7.97;2.67;;;;;;;11.36;71.42;101120.09;5034399;28;20025;-44
2022/11/25 06:23:02;;;;;;;6.25;2.30;;;;;;;11.36;70.90;101125.31;5035088;28;20029;-41
2022/11/25 06:25:27;;;;;;;9.10;2.60;;;;;;;11.29;71.43;101137.41;5034470;28;20025;-43
2022/11/25 06:27:53;;;;;;;7.65;2.40;;;;;;;11.33;71.75;101143.56;5032605;28;20105;-43
2022/11/25 06:30:19;;;;;;;8.07;2.30;;;;;;;11.33;71.61;101147.03;5032220;28;20394;-45
2022/11/25 06:32:44;;;;;;;7.38;2.30;;;;;;;11.24;71.61;101156.47;5032626;28;20060;-43
2022/11/25 06:35:10;;;;;;;6.68;2.38;;;;;;;11.31;71.22;101155.69;5032920;28;20025;-44
2022/11/25 06:37:35;;;;;;;6.85;2.40;;;;;;;11.29;71.06;101160.88;5032732;28;20491;-45
2022/11/25 06:40:02;;;;;;;4.45;2.28;;;;;;;11.21;71.40;101157.31;5032620;28;20054;-44
2022/11/25 06:42:27;;;;;;;6.18;2.40;;;;;;;11.15;71.18;101162.44;5031870;28;20533;-43
2022/11/25 06:44:52;;;;;;;5.15;2.35;;;;;;;11.26;70.95;101162.59;5032641;28;20029;-44
2022/11/25 06:47:18;;;;;;;8.07;2.22;;;;;;;11.27;70.58;101162.63;5032030;28;20033;-43
2022/11/25 06:49:43;;;;;;;9.52;2.17;;;;;;;11.15;70.69;101175.47;5032095;28;20059;-43
2022/11/25 06:52:08;;;;;;;8.10;2.58;;;;;;;11.14;70.75;101175.44;5032031;28;20456;-43
2022/11/25 06:54:34;;;;;;;7.82;2.33;;;;;;;11.02;70.77;101185.69;5030777;28;20017;-43
2022/11/25 06:56:59;;;;;;;9.23;1.90;;;;;;;11.10;71.24;101189.31;5032308;28;20181;-41
2022/11/25 06:59:24;;;;;;;9.93;2.25;;;;;;;11.09;71.29;101198.88;5031876;28;20029;-43
2022/11/25 07:01:50;;;;;;;6.07;1.95;;;;;;;11.14;71.05;101196.31;5031794;28;20076;-45
2022/11/25 07:04:15;;;;;;;4.15;1.95;;;;;;;11.17;70.51;101198.97;5032014;28;20616;-43
2022/11/25 07:06:40;;;;;;;5.13;2.00;;;;;;;11.04;71.18;101210.09;5032059;28;20037;-45
2022/11/25 07:09:06;;;;;;;8.98;2.00;;;;;;;11.13;70.97;101208.50;5047560;28;20029;-45
2022/11/25 07:11:35;;;;;;;7.30;1.92;;;;;;;11.16;71.06;101208.53;5031558;28;20029;-43
2022/11/25 07:14:04;;;;;;;7.18;2.15;;;;;;;11.16;70.60;101215.50;5031801;28;20436;-42
2022/11/25 07:16:30;;;;;;;8.77;2.53;;;;;;;11.06;70.89;101216.19;5031645;28;20017;-46
2022/11/25 07:19:00;;;;;;;8.50;1.90;;;;;;;11.06;71.36;101216.19;5031472;28;20056;-45
2022/11/25 07:21:26;;;;;;;6.93;2.15;;;;;;;11.10;70.90;101228.44;5031171;28;20104;-43
2022/11/25 07:23:52;;;;;;;5.45;1.80;;;;;;;11.20;70.82;101226.00;5031648;28;20051;-47
2022/11/25 07:26:20;;;;;;;7.30;2.10;;;;;;;11.27;70.28;101233.09;5031407;28;20097;-43
2022/11/25 07:28:46;;;;;;;10.45;1.98;;;;;;;11.24;70.24;101238.25;5033732;28;20033;-43
2022/11/25 07:31:17;;;;;;;5.65;1.80;;;;;;;11.17;70.66;101236.38;5036109;28;20520;-45
2022/11/25 07:33:43;;;;;;;4.40;1.90;;;;;;;11.05;71.43;101244.00;5033293;28;20034;-46
2022/11/25 07:36:11;;;;;;;10.20;1.90;;;;;;;11.11;71.58;101254.53;5031648;28;20022;-42
2022/11/25 07:38:38;;;;;;;7.10;2.17;;;;;;;11.23;71.16;101249.53;5031273;28;20490;-46
2022/11/25 07:41:15;;;;;;;6.78;1.90;;;;;;;11.11;71.81;101259.75;5031308;28;20057;-42
2022/11/25 07:43:43;;;;;;;8.00;2.10;;;;;;;11.27;70.59;101264.41;5031228;28;20036;-43
2022/11/25 07:46:16;;;;;;;6.47;1.80;;;;;;;11.13;70.89;101270.22;5031271;28;20135;-45
2022/11/25 07:48:42;;;;;;;4.35;1.60;;;;;;;11.31;71.15;101283.59;5031206;28;20021;-43
2022/11/25 07:51:24;;;;;;;6.15;2.00;;;;;;;11.39;70.32;101282.88;5030949;28;20113;-41
2022/11/25 07:53:53;;;;;;;7.50;1.60;;;;;;;11.39;70.35;101288.09;5031390;28;20596;-44
2022/11/25 07:56:19;;;;;;;8.23;1.98;;;;;;;11.36;70.35;101293.25;5031079;28;20033;-42
2022/11/25 07:58:45;;;;;;;5.82;1.67;;;;;;;11.34;70.79;101288.88;5031298;28;20031;-42
2022/11/25 08:01:12;;;;;;;4.63;1.70;;;;;;;11.56;70.19;101300.53;5030915;28;20108;-43
2022/11/25 08:03:39;;;;;;;10.23;1.77;;;;;;;11.39;70.19;101293.31;5031268;28;20026;-44
2022/11/25 08:06:07;;;;;;;9.27;2.03;;;;;;;11.64;69.76;101305.06;5032679;28;20034;-42
2022/11/25 08:08:33;;;;;;;5.53;1.73;;;;;;;11.59;69.77;101306.69;5032494;28;20025;-44
2022/11/25 08:10:59;;;;;;;7.20;1.60;;;;;;;11.38;70.37;101317.66;5031841;28;20039;-42
2022/11/25 08:13:24;;;;;;;4.57;1.60;;;;;;;11.66;69.35;101325.94;5032892;28;20394;-43
2022/11/25 08:15:50;;;;;;;6.93;1.40;;;;;;;11.53;69.88;101332.69;5032388;28;20097;-40
2022/11/25 08:18:16;;;;;;;4.97;1.40;;;;;;;11.73;69.54;101328.72;5031459;28;20021;-44
2022/11/25 08:20:41;;;;;;;3.67;1.40;;;;;;;11.66;69.16;101329.44;5030406;28;20022;-43
2022/11/25 08:23:06;;;;;;;5.75;1.38;;;;;;;11.98;68.77;101329.97;5030210;28;20108;-44
2022/11/25 08:25:32;;;;;;;6.05;1.40;;;;;;;11.70;69.44;101333.88;5030053;28;20047;-43
2022/11/25 08:27:58;;;;;;;5.95;1.20;;;;;;;11.72;69.18;101323.44;5030725;28;20061;-45
2022/11/25 08:30:24;;;;;;;4.72;1.35;;;;;;;11.85;68.97;101319.31;5030421;28;20022;-44
2022/11/25 08:32:50;;;;;;;5.55;1.30;;;;;;;12.01;68.49;101324.81;5031012;28;20049;-44
2022/11/25 08:35:16;;;;;;;6.60;1.30;;;;;;;12.14;67.94;101324.09;5030543;28;20482;-46
2022/11/25 08:37:41;;;;;;;5.40;1.35;;;;;;;12.26;67.64;101327.78;5030594;28;20120;-45
2022/11/25 08:40:07;;;;;;;6.60;1.27;;;;;;;12.11;68.08;101337.13;5030000;28;20057;-42
2022/11/25 08:42:32;;;;;;;4.72;1.20;;;;;;;12.18;68.33;101335.50;5029978;28;20026;-42
2022/11/25 08:44:58;;;;;;;5.53;1.48;;;;;;;12.24;68.11;101338.19;5030387;28;20079;-42
2022/11/25 08:47:24;;;;;;;5.28;1.25;;;;;;;12.14;68.66;101347.63;5030607;28;20029;-43
2022/11/25 08:49:52;;;;;;;7.57;1.50;;;;;;;12.17;68.12;101344.19;5030155;28;20363;-41
2022/11/25 08:52:18;;;;;;;5.78;1.33;;;;;;;12.09;69.00;101358.88;5030348;28;20486;-39
2022/11/25 08:54:43;;;;;;;6.22;1.40;;;;;;;12.42;68.52;101359.38;5030267;28;20094;-42
2022/11/25 08:57:08;;;;;;;6.38;1.40;;;;;;;12.06;69.59;101370.19;5030166;28;20029;-42
2022/11/25 08:59:33;;;;;;;6.20;1.30;;;;;;;12.43;69.09;101362.88;5062055;22;20072;-39
2022/11/25 09:01:59;;;;;;;4.97;1.10;;;;;;;12.38;68.67;101380.22;5051505;28;20078;-43
2022/11/25 09:04:24;;;;;;;8.57;1.73;;;;;;;12.29;68.91;101382.69;5052286;28;20417;-43
2022/11/25 09:06:49;;;;;;;5.63;1.40;;;;;;;12.75;68.06;101385.06;5051326;28;20055;-41
2022/11/25 09:09:15;;;;;;;7.03;1.50;;;;;;;12.74;67.75;101387.69;5033598;28;20021;-41
2022/11/25 09:11:41;;;;;;;10.65;1.40;;;;;;;12.69;67.90;101381.50;5051758;28;20031;-40
2022/11/25 09:14:06;;;;;;;5.07;1.20;;;;;;;12.81;67.66;101389.50;5051947;28;20032;-43
2022/11/25 09:16:32;;;;;;;6.30;1.50;;;;;;;12.83;67.08;101388.66;5052331;28;20558;-42
2022/11/25 09:18:58;;;;;;;6.95;1.48;;;;;;;13.01;66.99;101395.84;5052165;28;20087;-40
2022/11/25 09:21:24;;;;;;;5.72;1.38;;;;;;;13.06;67.33;101395.91;5051969;28;20080;-44
2022/11/25 09:23:50;;;;;;;8.93;1.55;;;;;;;13.20;66.78;101395.25;5052681;28;20037;-42
2022/11/25 09:26:30;;;;;;;4.53;1.33;;;;;;;13.24;66.43;101404.00;5051546;28;20024;-42
2022/11/25 09:28:56;;;;;;;6.50;1.33;;;;;;;13.56;65.61;101402.59;5050763;28;20032;-44
2022/11/25 09:31:22;;;;;;;6.05;1.63;;;;;;;13.35;65.90;101418.09;5032091;28;20028;-42
2022/11/25 09:33:48;;;;;;;7.68;1.40;;;;;;;13.70;65.93;101419.31;5050162;28;20021;-41
2022/11/25 09:36:15;;;;;;;8.98;1.63;;;;;;;13.71;65.14;101428.94;5053393;28;20044;-41
2022/11/25 09:38:44;;;;;;;5.78;1.33;;;;;;;14.03;64.28;101428.31;5036108;28;20017;-41
2022/11/25 09:48:02;;;;;;;6.72;1.27;;;;;;;14.59;63.30;101426.13;5055776;28;20451;-42
2022/11/25 09:51:04;;;;;;;6.70;1.50;;;;;;;14.69;62.30;101433.22;5053173;28;20021;-41
2022/11/25 09:53:43;;;;;;;7.15;1.65;;;;;;;14.75;62.63;101430.63;5055526;28;20036;-41
2022/11/25 09:56:18;;;;;;;8.20;1.77;;;;;;;14.54;63.99;101441.84;5054317;28;20021;-41
2022/11/25 09:58:49;;;;;;;9.50;1.63;;;;;;;14.04;63.75;101443.19;5054359;28;20370;-42
2022/11/25 10:01:25;;;;;;;9.07;1.90;;;;;;;14.23;63.96;101455.59;5053894;28;20044;-47
2022/11/25 10:04:10;;;;;;;7.05;2.00;;;;;;;14.02;64.25;101453.69;5054249;28;20033;-43
2022/11/25 10:06:43;;;;;;;9.07;1.77;;;;;;;13.83;64.97;101459.63;5054897;28;20029;-41
2022/11/25 10:09:13;;;;;;;9.48;1.67;;;;;;;14.22;64.22;101470.44;5054222;28;20029;-41
2022/11/25 10:11:50;;;;;;;8.27;1.80;;;;;;;13.84;65.45;101471.88;5053736;28;20489;-41
2022/11/25 10:14:41;;;;;;;13.00;1.90;;;;;;;14.09;65.13;101473.81;5053960;28;20108;-43
2022/11/25 10:17:17;;;;;;;7.38;1.70;;;;;;;14.30;64.69;101467.88;5054603;28;20032;-42
2022/11/25 10:20:13;;;;;;;12.48;2.00;;;;;;;14.44;63.75;101475.91;5036526;28;20032;-41
2022/11/25 10:22:44;;;;;;;10.93;1.67;;;;;;;14.52;64.22;101487.31;5053508;28;20120;-39
2022/11/25 10:25:31;;;;;;;10.68;1.90;;;;;;;14.43;65.80;101489.88;5053978;28;20477;-41
2022/11/25 10:28:01;;;;;;;11.57;1.83;;;;;;;14.69;64.88;101483.06;5053936;28;20071;-41
2022/11/25 10:30:33;;;;;;;9.45;1.90;;;;;;;14.94;64.19;101486.72;5053129;28;20025;-39
2022/11/25 10:33:12;;;;;;;11.57;2.10;;;;;;;14.26;65.08;101491.47;5053725;28;20108;-44
2022/11/25 10:35:42;;;;;;;9.35;1.70;;;;;;;14.32;66.42;101504.63;5052687;28;20025;-43
2022/11/25 10:38:17;;;;;;;7.75;1.98;;;;;;;14.47;65.95;101499.53;5052800;28;20025;-41
2022/11/25 10:40:47;;;;;;;11.27;2.17;;;;;;;14.73;64.50;101503.22;5053865;28;20017;-41
2022/11/25 10:43:14;;;;;;;11.73;2.30;;;;;;;14.45;66.50;101520.53;5055187;28;20387;-40
2022/11/25 10:45:47;;;;;;;15.02;2.40;;;;;;;14.28;65.64;101511.56;5055239;28;20029;-41
2022/11/25 10:48:52;;;;;;;9.35;2.17;;;;;;;14.18;66.04;101521.13;5054245;28;20036;-43
2022/11/25 10:51:40;;;;;;;9.23;2.20;;;;;;;14.39;65.25;101522.22;5054896;28;20028;-40
2022/11/25 10:54:21;;;;;;;11.55;1.95;;;;;;;14.38;65.47;101531.81;5054492;28;20032;-42
2022/11/25 10:56:49;;;;;;;13.00;2.25;;;;;;;14.19;66.01;101533.38;5053385;28;20024;-40
2022/11/25 10:59:21;;;;;;;12.05;2.33;;;;;;;14.25;66.23;101534.28;5054236;28;20104;-40
2022/11/25 11:01:46;;;;;;;14.50;2.25;;;;;;;14.54;65.54;101532.81;5055584;28;20026;-40
2022/11/25 11:04:14;;;;;;;10.13;2.28;;;;;;;14.64;65.29;101536.41;5055396;28;20155;-42
2022/11/25 11:06:47;;;;;;;14.50;2.30;;;;;;;14.52;65.72;101556.41;5055228;28;20067;-40
2022/11/25 11:09:39;;;;;;;14.63;2.72;;;;;;;14.36;66.02;101562.38;5053576;28;20028;-46
2022/11/25 11:12:27;;;;;;;12.48;2.75;;;;;;;14.25;66.53;101561.41;5048464;28;20033;-43
2022/11/25 11:15:13;;;;;;;14.07;2.47;;;;;;;14.77;65.31;101564.47;5052303;28;20029;-47
2022/11/25 11:17:39;;;;;;;11.90;2.92;;;;;;;14.62;65.22;101565.25;5051874;28;20079;-41
2022/11/25 11:20:07;;;;;;;16.95;3.10;;;;;;;14.28;66.56;101569.28;5051841;28;20025;-43
2022/11/25 11:22:34;;;;;;;12.05;2.85;;;;;;;14.10;67.22;101572.59;5052848;28;20100;-42
2022/11/25 11:25:26;;;;;;;15.15;3.20;;;;;;;14.02;67.16;101582.16;5052565;28;20028;-42
2022/11/25 11:27:52;;;;;;;13.10;2.88;;;;;;;14.10;66.57;101588.34;5052900;28;20033;-42
2022/11/25 11:30:20;;;;;;;12.05;2.55;;;;;;;13.95;67.51;101596.06;5053126;28;20075;-38
2022/11/25 11:33:26;;;;;;;17.52;2.47;;;;;;;13.96;67.00;101592.56;5054177;28;20021;-42
2022/11/25 11:36:01;;;;;;;14.27;2.30;;;;;;;13.98;67.09;101584.69;5052994;28;20425;-43
2022/11/25 11:38:43;;;;;;;9.13;2.13;;;;;;;14.19;66.83;101598.06;5051688;28;20139;-41
2022/11/25 11:41:17;;;;;;;10.23;1.95;;;;;;;14.23;67.03;101600.72;5051836;28;20052;-41